createdAt,value
2019-05-25T00:02:12.086Z,98876.04
2019-05-25T00:04:40.505Z,98876.09
2019-05-25T00:07:08.913Z,98875.02
2019-05-25T00:09:37.327Z,98872.72
2019-05-25T00:12:05.733Z,98874.02
2019-05-25T00:14:34.148Z,98877.25
2019-05-25T00:17:02.546Z,98875.09
2019-05-25T00:19:30.968Z,98870.86
2019-05-25T00:21:59.376Z,98875.91
2019-05-25T00:24:27.787Z,98879.59
2019-05-25T00:26:56.191Z,98874.85
2019-05-25T00:29:24.611Z,98883.08
2019-05-25T00:31:53.030Z,98887.52
2019-05-25T00:34:21.447Z,98877.20
2019-05-25T00:36:49.878Z,98881.59
2019-05-25T00:39:18.258Z,98879.48
2019-05-25T00:41:46.659Z,98884.11
2019-05-25T00:44:15.074Z,98887.72
2019-05-25T00:46:43.474Z,98881.16
2019-05-25T00:49:11.902Z,98886.99
2019-05-25T00:51:40.306Z,98883.88
2019-05-25T00:54:08.723Z,98871.03
2019-05-25T00:56:37.135Z,98884.35
2019-05-25T00:59:05.559Z,98883.59
2019-05-25T01:01:33.980Z,98884.22
2019-05-25T01:04:02.394Z,98880.59
2019-05-25T01:06:30.800Z,98883.61
2019-05-25T01:08:59.217Z,98881.41
2019-05-25T01:11:27.625Z,98884.97
2019-05-25T01:13:56.043Z,98890.61
2019-05-25T01:16:24.491Z,98892.94
2019-05-25T01:18:52.908Z,98880.47
2019-05-25T01:21:21.321Z,98885.06
2019-05-25T01:23:49.726Z,98875.84
2019-05-25T01:26:18.134Z,98878.70
2019-05-25T01:28:46.548Z,98874.49
2019-05-25T01:31:14.964Z,98875.64
2019-05-25T01:33:43.388Z,98884.36
2019-05-25T01:36:11.786Z,98883.03
2019-05-25T01:38:40.197Z,98885.95
2019-05-25T01:41:08.611Z,98885.62
2019-05-25T01:43:37.012Z,98898.05
2019-05-25T01:46:05.437Z,98897.69
2019-05-25T01:48:33.828Z,98889.98
2019-05-25T01:51:02.249Z,98889.74
2019-05-25T01:53:30.648Z,98896.88
2019-05-25T01:55:59.068Z,98897.28
2019-05-25T01:58:27.466Z,98901.19
2019-05-25T02:00:55.888Z,98896.36
2019-05-25T02:03:24.294Z,98905.84
2019-05-25T02:05:52.742Z,98897.50
2019-05-25T02:08:21.169Z,98901.06
2019-05-25T02:10:49.589Z,98898.84
2019-05-25T02:13:18.013Z,98904.02
2019-05-25T02:15:46.712Z,98908.14
2019-05-25T02:18:15.123Z,98908.40
2019-05-25T02:20:43.542Z,98901.58
2019-05-25T02:23:11.947Z,98905.45
2019-05-25T02:25:41.035Z,98907.53
2019-05-25T02:28:09.444Z,98915.99
2019-05-25T02:30:37.890Z,98914.16
2019-05-25T02:33:06.271Z,98921.64
2019-05-25T02:35:34.706Z,98913.84
2019-05-25T02:38:03.121Z,98919.05
2019-05-25T02:40:31.539Z,98918.59
2019-05-25T02:43:00.110Z,98922.16
2019-05-25T02:45:28.601Z,98919.05
2019-05-25T02:47:57.014Z,98920.52
2019-05-25T02:50:25.581Z,98925.09
2019-05-25T02:52:53.982Z,98932.42
2019-05-25T02:55:33.611Z,98928.00
2019-05-25T02:57:52.527Z,98933.13
2019-05-25T03:00:32.438Z,98933.37
2019-05-25T03:03:02.001Z,98929.86
2019-05-25T03:05:30.476Z,98926.89
2019-05-25T03:07:58.870Z,98929.80
2019-05-25T03:10:28.236Z,98923.86
2019-05-25T03:12:56.906Z,98930.22
2019-05-25T03:15:25.322Z,98929.66
2019-05-25T03:17:53.734Z,98936.23
2019-05-25T03:20:22.226Z,98937.34
2019-05-25T03:22:50.641Z,98946.34
2019-05-25T03:25:19.494Z,98937.34
2019-05-25T03:27:47.896Z,98945.80
2019-05-25T03:30:19.376Z,98938.47
2019-05-25T03:32:48.418Z,98942.49
2019-05-25T03:35:16.839Z,98930.64
2019-05-25T03:37:45.243Z,98938.38
2019-05-25T03:40:13.726Z,98935.73
2019-05-25T03:42:42.128Z,98940.97
2019-05-25T03:45:10.543Z,98941.28
2019-05-25T03:47:38.942Z,98942.40
2019-05-25T03:50:07.494Z,98941.27
2019-05-25T03:52:35.952Z,98945.16
2019-05-25T03:55:06.799Z,98938.88
2019-05-25T03:57:35.226Z,98940.00
2019-05-25T04:00:07.488Z,98936.99
2019-05-25T04:02:35.943Z,98938.26
2019-05-25T04:05:05.896Z,98934.44
2019-05-25T04:07:34.317Z,98939.68
2019-05-25T04:10:02.772Z,98940.55
2019-05-25T04:12:31.161Z,98943.09
2019-05-25T04:14:59.572Z,98941.05
2019-05-25T04:17:27.992Z,98946.73
2019-05-25T04:19:56.396Z,98945.94
2019-05-25T04:22:24.821Z,98948.80
2019-05-25T04:24:53.233Z,98948.39
2019-05-25T04:27:21.664Z,98947.32
2019-05-25T04:29:50.081Z,98959.16
2019-05-25T04:32:18.512Z,98962.64
2019-05-25T04:34:46.924Z,98960.09
2019-05-25T04:37:15.362Z,98970.48
2019-05-25T04:39:43.784Z,98968.30
2019-05-25T04:42:12.204Z,98973.80
2019-05-25T04:44:40.638Z,98968.84
2019-05-25T04:47:09.076Z,98972.72
2019-05-25T04:49:37.478Z,98968.13
2019-05-25T04:52:05.910Z,98965.39
2019-05-25T04:54:34.334Z,98970.48
2019-05-25T04:57:02.893Z,98961.92
2019-05-25T04:59:31.355Z,98966.09
2019-05-25T05:01:59.776Z,98968.48
2019-05-25T05:04:28.188Z,98968.12
2019-05-25T05:06:56.616Z,98965.69
2019-05-25T05:09:25.025Z,98967.72
2019-05-25T05:11:53.444Z,98972.74
2019-05-25T05:14:21.857Z,98975.64
2019-05-25T05:16:50.298Z,98977.61
2019-05-25T05:19:18.718Z,98977.05
2019-05-25T05:21:47.137Z,98977.14
2019-05-25T05:24:15.550Z,98979.58
2019-05-25T05:26:55.318Z,98972.86
2019-05-25T05:29:14.123Z,98979.77
2019-05-25T05:31:42.548Z,98980.08
2019-05-25T05:34:10.974Z,98986.33
2019-05-25T05:36:39.401Z,98988.97
2019-05-25T05:39:08.953Z,98991.93
2019-05-25T05:41:40.489Z,98990.14
2019-05-25T05:44:08.978Z,98993.03
2019-05-25T05:46:38.945Z,98990.84
2019-05-25T05:49:09.871Z,98987.67
2019-05-25T05:51:38.297Z,98995.08
2019-05-25T05:54:06.710Z,99001.77
2019-05-25T05:56:35.142Z,98999.52
2019-05-25T05:59:03.643Z,98999.30
2019-05-25T06:01:32.057Z,99000.52
2019-05-25T06:04:00.477Z,99003.61
2019-05-25T06:06:28.936Z,99003.46
2019-05-25T06:08:57.326Z,99006.14
2019-05-25T06:11:25.733Z,99008.70
2019-05-25T06:13:54.157Z,99013.84
2019-05-25T06:16:22.566Z,99013.75
2019-05-25T06:18:50.990Z,99016.83
2019-05-25T06:21:19.469Z,99019.48
2019-05-25T06:23:47.894Z,99022.17
2019-05-25T06:26:16.318Z,99024.48
2019-05-25T06:28:44.733Z,99026.90
2019-05-25T06:31:13.209Z,99023.02
2019-05-25T06:33:41.627Z,99032.78
2019-05-25T06:36:10.030Z,99035.66
2019-05-25T06:38:38.455Z,99036.38
2019-05-25T06:41:08.742Z,99042.56
2019-05-25T06:43:37.005Z,99034.19
2019-05-25T06:46:05.549Z,99035.78
2019-05-25T06:48:33.971Z,99036.37
2019-05-25T06:51:02.393Z,99037.92
2019-05-25T06:53:30.823Z,99045.09
2019-05-25T06:55:59.229Z,99044.00
2019-05-25T06:58:27.648Z,99043.06
2019-05-25T07:00:56.056Z,99045.82
2019-05-25T07:03:24.497Z,99038.79
2019-05-25T07:05:52.905Z,99034.64
2019-05-25T07:08:21.335Z,99047.05
2019-05-25T07:10:50.307Z,99038.45
2019-05-25T07:13:18.737Z,99040.63
2019-05-25T07:15:47.144Z,99034.08
2019-05-25T07:18:15.572Z,99032.75
2019-05-25T07:20:43.979Z,99026.02
2019-05-25T07:25:54.304Z,99032.20
2019-05-25T07:28:22.795Z,99042.32
2019-05-25T07:30:51.198Z,99045.73
2019-05-25T07:33:19.616Z,99042.72
2019-05-25T07:35:48.032Z,99045.31
2019-05-25T07:38:16.450Z,99041.92
2019-05-25T07:40:44.871Z,99044.64
2019-05-25T07:43:13.305Z,99045.45
2019-05-25T07:45:42.007Z,99046.83
2019-05-25T07:48:10.413Z,99042.70
2019-05-25T07:50:38.811Z,99048.41
2019-05-25T07:53:07.239Z,99048.73
2019-05-25T07:55:35.646Z,99048.34
2019-05-25T07:58:16.498Z,99053.40
2019-05-25T08:00:34.272Z,99049.67
2019-05-25T08:03:02.682Z,99048.51
2019-05-25T08:05:31.179Z,99050.55
2019-05-25T08:07:59.615Z,99053.96
2019-05-25T08:10:28.376Z,99052.02
2019-05-25T08:12:56.779Z,99048.88
2019-05-25T08:15:25.192Z,99063.87
2019-05-25T08:17:53.599Z,99061.41
2019-05-25T08:20:22.023Z,99063.47
2019-05-25T08:22:50.426Z,99066.20
2019-05-25T08:25:18.841Z,99062.92
2019-05-25T08:27:47.251Z,99064.92
2019-05-25T08:30:15.902Z,99065.56
2019-05-25T08:32:44.318Z,99067.06
2019-05-25T08:35:12.973Z,99063.32
2019-05-25T08:37:41.372Z,99073.38
2019-05-25T08:40:10.328Z,99073.86
2019-05-25T08:42:38.725Z,99073.88
2019-05-25T08:45:07.986Z,99077.20
2019-05-25T08:47:36.517Z,99070.09
2019-05-25T08:50:08.679Z,99068.49
2019-05-25T08:52:37.537Z,99076.98
2019-05-25T08:55:07.856Z,99081.59
2019-05-25T08:57:36.249Z,99076.13
2019-05-25T09:00:06.204Z,99082.41
2019-05-25T09:02:34.608Z,99081.95
2019-05-25T09:05:03.709Z,99078.05
2019-05-25T09:07:32.114Z,99081.77
2019-05-25T09:10:00.571Z,99087.14
2019-05-25T09:12:28.994Z,99083.02
2019-05-25T09:14:57.405Z,99086.34
2019-05-25T09:17:25.806Z,99090.34
2019-05-25T09:19:54.223Z,99088.95
2019-05-25T09:22:22.632Z,99093.33
2019-05-25T09:24:51.071Z,99097.55
2019-05-25T09:27:19.539Z,99101.37
2019-05-25T09:29:47.955Z,99102.11
2019-05-25T09:32:16.367Z,99103.44
2019-05-25T09:34:44.792Z,99105.74
2019-05-25T09:37:13.196Z,99108.91
2019-05-25T09:39:41.625Z,99094.55
2019-05-25T09:42:10.027Z,99108.59
2019-05-25T09:44:38.477Z,99106.84
2019-05-25T09:47:06.880Z,99112.96
2019-05-25T09:49:35.294Z,99116.37
2019-05-25T09:52:03.766Z,99115.31
2019-05-25T09:54:32.213Z,99117.51
2019-05-25T09:57:00.653Z,99112.41
2019-05-25T09:59:29.063Z,99103.81
2019-05-25T10:01:57.480Z,99110.35
2019-05-25T10:04:25.910Z,99105.53
2019-05-25T10:06:54.333Z,99116.27
2019-05-25T10:09:22.740Z,99111.80
2019-05-25T10:11:51.162Z,99120.31
2019-05-25T10:14:19.564Z,99119.50
2019-05-25T10:16:47.989Z,99121.51
2019-05-25T10:19:16.397Z,99119.55
2019-05-25T10:21:44.816Z,99123.27
2019-05-25T10:24:13.221Z,99118.64
2019-05-25T10:26:41.634Z,99115.50
2019-05-25T10:29:10.035Z,99128.72
2019-05-25T10:31:38.454Z,99126.90
2019-05-25T10:34:06.855Z,99126.23
2019-05-25T10:36:35.269Z,99122.55
2019-05-25T10:39:05.191Z,99131.16
2019-05-25T10:41:33.603Z,99125.73
2019-05-25T10:44:02.019Z,99123.39
2019-05-25T10:46:30.457Z,99123.89
2019-05-25T10:48:58.858Z,99120.95
2019-05-25T10:51:27.284Z,99124.09
2019-05-25T10:53:55.691Z,99108.84
2019-05-25T10:56:24.115Z,99122.21
2019-05-25T10:58:52.532Z,99125.83
2019-05-25T11:01:20.975Z,99124.50
2019-05-25T11:03:49.364Z,99125.84
2019-05-25T11:06:18.060Z,99124.25
2019-05-25T11:08:46.460Z,99118.39
2019-05-25T11:11:14.879Z,99122.48
2019-05-25T11:13:43.289Z,99118.79
2019-05-25T11:16:11.744Z,99125.41
2019-05-25T11:18:40.127Z,99116.09
2019-05-25T11:21:08.545Z,99110.71
2019-05-25T11:23:37.026Z,99116.81
2019-05-25T11:26:05.456Z,99112.19
2019-05-25T11:28:33.860Z,99104.18
2019-05-25T11:31:02.280Z,99109.28
2019-05-25T11:33:30.688Z,99104.66
2019-05-25T11:35:59.109Z,99104.15
2019-05-25T11:38:27.512Z,99106.61
2019-05-25T11:40:55.931Z,99101.53
2019-05-25T11:43:24.333Z,99100.99
2019-05-25T11:45:52.762Z,99092.85
2019-05-25T11:48:21.187Z,99093.77
2019-05-25T11:50:49.602Z,99095.81
2019-05-25T11:53:18.007Z,99099.23
2019-05-25T11:55:46.410Z,99094.98
2019-05-25T11:58:14.832Z,99098.29
2019-05-25T12:00:43.231Z,99091.75
2019-05-25T12:03:11.650Z,99095.62
2019-05-25T12:05:40.061Z,99103.08
2019-05-25T12:08:08.561Z,99092.95
2019-05-25T12:10:36.962Z,99101.48
2019-05-25T12:13:05.382Z,99095.64
2019-05-25T12:15:33.791Z,99097.34
2019-05-25T12:18:02.275Z,99104.89
2019-05-25T12:20:30.692Z,99093.66
2019-05-25T12:22:59.124Z,99099.75
2019-05-25T12:25:27.538Z,99098.00
2019-05-25T12:27:55.951Z,99093.05
2019-05-25T12:30:39.376Z,99090.83
2019-05-25T12:32:54.574Z,99088.28
2019-05-25T12:35:22.971Z,99090.41
2019-05-25T12:37:51.386Z,99088.94
2019-05-25T12:40:20.034Z,99091.70
2019-05-25T12:42:48.459Z,99089.70
2019-05-25T12:45:17.027Z,99084.23
2019-05-25T12:47:45.439Z,99087.80
2019-05-25T12:50:14.578Z,99084.41
2019-05-25T12:52:42.998Z,99081.97
2019-05-25T12:55:11.666Z,99085.25
2019-05-25T12:57:40.079Z,99086.66
2019-05-25T13:00:16.070Z,99082.66
2019-05-25T13:02:39.666Z,99076.55
2019-05-25T13:05:08.413Z,99087.44
2019-05-25T13:07:36.841Z,99082.06
2019-05-25T13:10:07.101Z,99082.09
2019-05-25T13:12:35.518Z,99080.25
2019-05-25T13:15:07.813Z,99081.99
2019-05-25T13:17:36.246Z,99083.47
2019-05-25T13:20:06.274Z,99079.33
2019-05-25T13:22:34.691Z,99075.03
2019-05-25T13:25:03.467Z,99071.61
2019-05-25T13:27:31.886Z,99072.81
2019-05-25T13:30:03.088Z,99067.91
2019-05-25T13:32:30.450Z,99066.94
2019-05-25T13:34:58.858Z,99074.78
2019-05-25T13:37:27.270Z,99069.60
2019-05-25T13:39:55.678Z,99067.20
2019-05-25T13:42:24.092Z,99067.73
2019-05-25T13:44:52.517Z,99066.30
2019-05-25T13:47:20.953Z,99068.31
2019-05-25T13:49:49.350Z,99076.20
2019-05-25T13:52:17.771Z,99062.77
2019-05-25T13:54:46.189Z,99075.83
2019-05-25T13:57:14.597Z,99063.47
2019-05-25T13:59:43.022Z,99068.17
2019-05-25T14:02:11.427Z,99079.95
2019-05-25T14:04:39.839Z,99082.29
2019-05-25T14:07:08.241Z,99086.29
2019-05-25T14:09:36.656Z,99084.39
2019-05-25T14:12:07.627Z,99085.12
2019-05-25T14:14:36.092Z,99081.97
2019-05-25T14:17:04.557Z,99076.30
2019-05-25T14:19:32.995Z,99080.67
2019-05-25T14:22:01.482Z,99084.08
2019-05-25T14:24:29.899Z,99078.37
2019-05-25T14:26:58.307Z,99067.67
2019-05-25T14:29:26.733Z,99070.58
2019-05-25T14:31:55.130Z,99084.88
2019-05-25T14:34:23.561Z,99083.48
2019-05-25T14:36:51.981Z,99079.28
2019-05-25T14:39:20.397Z,99072.66
2019-05-25T14:41:48.866Z,99082.66
2019-05-25T14:44:17.285Z,99084.33
2019-05-25T14:46:45.688Z,99072.35
2019-05-25T14:49:14.111Z,99082.07
2019-05-25T14:51:42.516Z,99077.34
2019-05-25T14:54:10.931Z,99079.35
2019-05-25T14:56:39.343Z,99074.23
2019-05-25T14:59:07.764Z,99073.16
2019-05-25T15:01:36.235Z,99075.38
2019-05-25T15:04:05.234Z,99065.28
2019-05-25T15:06:33.643Z,99073.69
2019-05-25T15:09:02.069Z,99068.84
2019-05-25T15:11:30.501Z,99069.19
2019-05-25T15:13:58.903Z,99065.66
2019-05-25T15:16:29.026Z,99069.49
2019-05-25T15:18:57.449Z,99060.69
2019-05-25T15:21:26.338Z,99065.73
2019-05-25T15:23:55.021Z,99075.16
2019-05-25T15:26:23.422Z,99075.28
2019-05-25T15:28:51.855Z,99079.37
2019-05-25T15:31:20.257Z,99065.89
2019-05-25T15:33:48.672Z,99066.30
2019-05-25T15:36:17.075Z,99078.70
2019-05-25T15:38:45.498Z,99070.93
2019-05-25T15:41:13.900Z,99067.88
2019-05-25T15:43:42.329Z,99069.47
2019-05-25T15:46:10.727Z,99076.72
2019-05-25T15:48:39.146Z,99074.19
2019-05-25T15:51:07.688Z,99075.79
2019-05-25T15:53:36.161Z,99076.03
2019-05-25T15:59:05.509Z,99079.11
2019-05-25T16:04:45.622Z,99082.53
2019-05-25T16:07:49.848Z,99079.88
2019-05-25T16:10:18.318Z,99081.25
2019-05-25T16:12:46.727Z,99081.35
2019-05-25T16:15:18.207Z,99079.66
2019-05-25T16:17:46.611Z,99065.55
2019-05-25T16:20:18.070Z,99072.03
2019-05-25T16:22:46.476Z,99079.05
2019-05-25T16:25:14.903Z,99082.11
2019-05-25T16:27:43.307Z,99081.53
2019-05-25T16:30:12.074Z,99080.59
2019-05-25T16:33:09.945Z,99082.99
2019-05-25T16:35:10.791Z,99078.23
2019-05-25T16:37:39.590Z,99069.41
2019-05-25T16:40:08.861Z,99068.85
2019-05-25T16:42:37.293Z,99069.10
2019-05-25T16:45:06.653Z,99080.06
2019-05-25T16:47:35.594Z,99076.42
2019-05-25T16:50:06.352Z,99084.06
2019-05-25T16:52:34.758Z,99086.37
2019-05-25T16:55:03.746Z,99090.46
2019-05-25T16:57:32.150Z,99089.16
2019-05-25T17:00:00.592Z,99084.59
2019-05-25T17:02:29.655Z,99090.64
2019-05-25T17:04:58.090Z,99082.38
2019-05-25T17:07:26.477Z,99078.16
2019-05-25T17:09:54.968Z,99087.52
2019-05-25T17:12:23.354Z,99087.09
2019-05-25T17:14:51.784Z,99095.19
2019-05-25T17:17:20.187Z,99089.08
2019-05-25T17:19:48.598Z,99093.66
2019-05-25T17:22:16.998Z,99091.88
2019-05-25T17:24:45.418Z,99089.30
2019-05-25T17:27:13.832Z,99085.92
2019-05-25T17:29:42.239Z,99078.78
2019-05-25T17:32:10.707Z,99072.14
2019-05-25T17:34:39.129Z,99076.97
2019-05-25T17:37:07.549Z,99073.19
2019-05-25T17:39:35.962Z,99075.55
2019-05-25T17:42:05.117Z,99069.63
2019-05-25T17:44:33.525Z,99069.69
2019-05-25T17:47:01.956Z,99077.22
2019-05-25T17:49:30.372Z,99069.55
2019-05-25T17:51:58.791Z,99077.56
2019-05-25T17:54:27.199Z,99071.86
2019-05-25T17:56:55.636Z,99075.47
2019-05-25T17:59:24.021Z,99075.83
2019-05-25T18:01:52.438Z,99066.89
2019-05-25T18:04:20.835Z,99073.17
2019-05-25T18:06:49.258Z,99067.37
2019-05-25T18:09:17.674Z,99065.45
2019-05-25T18:11:46.086Z,99076.67
2019-05-25T18:14:14.496Z,99074.70
2019-05-25T18:16:42.920Z,99068.36
2019-05-25T18:19:11.327Z,99069.89
2019-05-25T18:21:39.752Z,99073.58
2019-05-25T18:24:08.220Z,99077.29
2019-05-25T18:26:36.620Z,99074.30
2019-05-25T18:29:05.028Z,99069.64
2019-05-25T18:31:33.462Z,99075.17
2019-05-25T18:34:01.902Z,99075.17
2019-05-25T18:36:30.332Z,99068.40
2019-05-25T18:38:58.735Z,99073.52
2019-05-25T18:41:27.234Z,99064.11
2019-05-25T18:43:55.632Z,99070.53
2019-05-25T18:46:24.057Z,99067.59
2019-05-25T18:48:52.459Z,99066.53
2019-05-25T18:51:20.881Z,99068.52
2019-05-25T18:53:49.301Z,99070.11
2019-05-25T18:56:17.729Z,99070.19
2019-05-25T18:58:46.148Z,99062.97
2019-05-25T19:01:14.571Z,99065.27
2019-05-25T19:03:42.978Z,99069.17
2019-05-25T19:06:11.396Z,99075.22
2019-05-25T19:08:39.820Z,99075.61
2019-05-25T19:11:08.239Z,99074.72
2019-05-25T19:13:36.646Z,99085.23
2019-05-25T19:16:05.072Z,99083.91
2019-05-25T19:18:33.468Z,99080.81
2019-05-25T19:21:01.887Z,99086.73
2019-05-25T19:23:30.286Z,99093.82
2019-05-25T19:25:58.714Z,99091.66
2019-05-25T19:28:27.145Z,99090.02
2019-05-25T19:30:55.557Z,99094.03
2019-05-25T19:33:23.997Z,99095.07
2019-05-25T19:35:54.436Z,99098.05
2019-05-25T19:38:22.546Z,99105.80
2019-05-25T19:40:50.969Z,99110.66
2019-05-25T19:43:19.397Z,99116.04
2019-05-25T19:45:47.804Z,99122.48
2019-05-25T19:48:16.229Z,99121.41
2019-05-25T19:50:44.635Z,99121.16
2019-05-25T19:53:13.049Z,99126.19
2019-05-25T19:55:41.522Z,99127.91
2019-05-25T19:58:09.953Z,99121.96
2019-05-25T20:00:38.343Z,99118.68
2019-05-25T20:03:06.770Z,99122.91
2019-05-25T20:05:35.159Z,99123.77
2019-05-25T20:08:04.115Z,99126.73
2019-05-25T20:10:32.546Z,99117.37
2019-05-25T20:13:00.967Z,99121.52
2019-05-25T20:15:29.376Z,99116.02
2019-05-25T20:17:57.789Z,99113.76
2019-05-25T20:20:26.191Z,99111.73
2019-05-25T20:22:54.619Z,99117.11
2019-05-25T20:25:23.024Z,99118.73
2019-05-25T20:27:51.445Z,99110.86
2019-05-25T20:30:19.925Z,99119.05
2019-05-25T20:32:48.344Z,99114.91
2019-05-25T20:35:31.780Z,99122.56
2019-05-25T20:37:47.521Z,99117.61
2019-05-25T20:40:16.383Z,99113.39
2019-05-25T20:42:44.948Z,99115.34
2019-05-25T20:45:13.508Z,99117.60
2019-05-25T20:47:41.922Z,99115.73
2019-05-25T20:50:10.770Z,99109.84
2019-05-25T20:52:39.176Z,99107.33
2019-05-25T20:55:07.826Z,99106.04
2019-05-25T20:57:36.245Z,99098.88
2019-05-25T21:00:06.090Z,99098.00
2019-05-25T21:02:34.507Z,99101.02
2019-05-25T21:05:02.912Z,99104.96
2019-05-25T21:07:31.332Z,99113.44
2019-05-25T21:09:59.737Z,99110.23
2019-05-25T21:12:28.154Z,99113.70
2019-05-25T21:14:56.558Z,99105.68
2019-05-25T21:17:24.983Z,99110.53
2019-05-25T21:19:53.393Z,99111.26
2019-05-25T21:22:21.818Z,99109.81
2019-05-25T21:24:50.215Z,99109.16
2019-05-25T21:27:18.626Z,99106.52
2019-05-25T21:29:47.052Z,99105.74
2019-05-25T21:32:15.467Z,99109.97
2019-05-25T21:34:43.884Z,99099.27
2019-05-25T21:37:12.284Z,99101.05
2019-05-25T21:39:40.699Z,99098.28
2019-05-25T21:42:09.099Z,99088.30
2019-05-25T21:44:37.515Z,99096.61
2019-05-25T21:47:05.919Z,99093.13
2019-05-25T21:49:34.347Z,99097.67
2019-05-25T21:52:02.743Z,99091.39
2019-05-25T21:54:31.160Z,99091.80
2019-05-25T21:56:59.562Z,99087.47
2019-05-25T21:59:27.991Z,99086.44
2019-05-25T22:01:56.393Z,99094.78
2019-05-25T22:04:24.807Z,99092.44
2019-05-25T22:06:53.209Z,99089.93
2019-05-25T22:09:21.637Z,99086.16
2019-05-25T22:11:50.043Z,99089.53
2019-05-25T22:14:18.460Z,99088.86
2019-05-25T22:16:46.867Z,99081.38
2019-05-25T22:19:15.282Z,99086.73
2019-05-25T22:21:46.054Z,99075.74
2019-05-25T22:24:13.822Z,99075.88
2019-05-25T22:26:42.223Z,99075.20
2019-05-25T22:29:10.638Z,99071.42
2019-05-25T22:31:39.104Z,99069.32
2019-05-25T22:34:07.529Z,99076.12
2019-05-25T22:36:40.762Z,99069.97
2019-05-25T22:39:08.111Z,99064.54
2019-05-25T22:41:36.523Z,99062.22
2019-05-25T22:44:05.208Z,99061.03
2019-05-25T22:46:33.653Z,99058.71
2019-05-25T22:49:02.073Z,99053.58
2019-05-25T22:51:30.476Z,99053.30
2019-05-25T22:53:58.897Z,99053.86
2019-05-25T22:56:27.310Z,99057.72
2019-05-25T22:58:55.731Z,99049.75
2019-05-25T23:01:24.134Z,99049.30
2019-05-25T23:03:52.552Z,99044.91
2019-05-25T23:06:20.955Z,99044.05
2019-05-25T23:08:49.374Z,99041.64
2019-05-25T23:11:17.769Z,99045.45
2019-05-25T23:13:46.197Z,99049.14
2019-05-25T23:16:14.611Z,99041.20
2019-05-25T23:18:43.014Z,99032.52
2019-05-25T23:21:11.419Z,99037.62
2019-05-25T23:23:39.817Z,99030.36
2019-05-25T23:26:08.232Z,99025.71
2019-05-25T23:28:36.634Z,99031.91
2019-05-25T23:31:05.062Z,99030.46
2019-05-25T23:33:33.472Z,99026.66
2019-05-25T23:36:01.960Z,99027.39
2019-05-25T23:38:30.374Z,99033.17
2019-05-25T23:40:58.810Z,99026.20
2019-05-25T23:43:27.279Z,99022.73
2019-05-25T23:45:55.700Z,99021.18
2019-05-25T23:48:24.101Z,99020.31
2019-05-25T23:50:52.520Z,99021.36
2019-05-25T23:53:20.994Z,99013.06
2019-05-25T23:55:49.429Z,99023.14
2019-05-25T23:58:17.852Z,99018.15
